Time;durP1;ratioP1;P1;durP2;ratioP2;P2;SDS_P1;SDS_P2;PMS_P1;PMS_P2;Temp;Humidity;BMP_temperature;BMP_pressure;BME280_temperature;BME280_humidity;BME280_pressure;Samples;Min_cycle;Max_cycle;Signal;HPM_P1;HPM_P2
2023/05/02 00:00:08;;;;;;;0.43;0.43;;;;;;;11.81;100.00;99781.28;4915978;29;20552;-96
2023/05/02 00:02:34;;;;;;;0.20;0.20;;;;;;;11.88;100.00;99800.50;4860576;29;20041;-95
2023/05/02 00:04:59;;;;;;;0.73;0.65;;;;;;;11.82;100.00;99795.94;4864921;29;20070;-96
2023/05/02 00:07:25;;;;;;;0.38;0.38;;;;;;;11.78;100.00;99779.41;4868134;29;20127;-96
2023/05/02 00:09:51;;;;;;;0.25;0.22;;;;;;;11.86;100.00;99785.47;4867631;29;20036;-96
2023/05/02 00:12:17;;;;;;;0.20;0.20;;;;;;;11.97;100.00;99797.75;4880978;29;20040;-94
2023/05/02 00:14:42;;;;;;;0.68;0.68;;;;;;;12.02;100.00;99799.97;4881885;29;20486;-96
2023/05/02 00:17:08;;;;;;;0.60;0.60;;;;;;;12.04;100.00;99788.41;4885251;29;20044;-96
2023/05/02 00:19:38;;;;;;;0.32;0.32;;;;;;;12.05;100.00;99770.50;4870349;29;20045;-95
2023/05/02 00:22:04;;;;;;;0.52;0.28;;;;;;;12.18;100.00;99776.75;4869028;29;20040;-95
2023/05/02 00:24:29;;;;;;;0.32;0.32;;;;;;;12.21;100.00;99766.75;4869589;29;20074;-94
2023/05/02 00:26:55;;;;;;;0.63;0.63;;;;;;;12.40;100.00;99773.94;4869330;29;20071;-95
2023/05/02 00:29:20;;;;;;;0.40;0.40;;;;;;;12.34;100.00;99756.28;4869523;29;20040;-96
2023/05/02 00:31:46;;;;;;;0.28;0.28;;;;;;;12.43;100.00;99756.34;4894538;29;20464;-86
2023/05/02 00:34:12;;;;;;;0.40;0.20;;;;;;;12.40;100.00;99754.47;4887151;29;20040;-87
2023/05/02 00:36:37;;;;;;;0.20;0.20;;;;;;;12.59;100.00;99770.00;4908504;29;20824;-87
2023/05/02 00:39:03;;;;;;;0.00;0.00;;;;;;;12.43;100.00;99745.22;4894680;29;20083;-86
2023/05/02 00:41:29;;;;;;;0.30;0.30;;;;;;;12.53;100.00;99764.28;4903537;29;20028;-87
2023/05/02 00:43:54;;;;;;;0.38;0.38;;;;;;;12.47;100.00;99757.75;4898702;29;20044;-87
2023/05/02 00:46:20;;;;;;;0.40;0.40;;;;;;;12.58;100.00;99762.91;4908265;29;20041;-87
2023/05/02 00:48:45;;;;;;;1.25;0.52;;;;;;;12.49;100.00;99760.88;4908684;29;20403;-87
2023/05/02 00:51:12;;;;;;;0.60;0.60;;;;;;;12.44;100.00;99746.78;4890571;29;20533;-86
2023/05/02 00:53:38;;;;;;;0.38;0.38;;;;;;;12.46;100.00;99744.28;4887011;29;20046;-87
2023/05/02 00:56:04;;;;;;;0.80;0.73;;;;;;;12.55;100.00;99763.81;4884797;29;20056;-87
2023/05/02 00:58:30;;;;;;;0.38;0.38;;;;;;;12.51;100.00;99755.59;4896299;29;20088;-95
2023/05/02 01:06:20;;;;;;;0.40;0.40;;;;;;;12.33;100.00;99757.53;4887302;29;20046;-90
2023/05/02 01:08:51;;;;;;;0.15;0.15;;;;;;;12.21;100.00;99761.97;4838255;29;20041;-92
2023/05/02 01:11:48;;;;;;;0.52;0.50;;;;;;;12.06;100.00;99756.13;4860089;29;20508;-91
2023/05/02 01:14:16;;;;;;;0.35;0.35;;;;;;;11.89;100.00;99726.25;4861399;29;20594;-90
2023/05/02 01:16:44;;;;;;;0.00;0.00;;;;;;;11.97;100.00;99747.72;4857145;29;20135;-92
2023/05/02 01:19:21;;;;;;;1.40;1.30;;;;;;;11.93;100.00;99746.34;4840573;29;20044;-93
2023/05/02 01:21:48;;;;;;;0.15;0.15;;;;;;;11.79;100.00;99728.16;4843495;29;20060;-91
2023/05/02 01:24:22;;;;;;;4.90;2.47;;;;;;;11.74;100.00;99731.53;4842800;29;20410;-91
2023/05/02 01:27:16;;;;;;;0.00;0.00;;;;;;;11.75;100.00;99749.75;4856626;29;20915;-93
2023/05/02 01:29:45;;;;;;;0.25;0.25;;;;;;;11.57;100.00;99735.69;4873239;29;21160;-90
2023/05/02 01:32:15;;;;;;;1.23;0.95;;;;;;;11.48;100.00;99724.50;4858688;29;20135;-92
2023/05/02 01:34:46;;;;;;;0.22;0.22;;;;;;;11.67;100.00;99740.09;4860421;29;20457;-90
2023/05/02 01:37:13;;;;;;;1.02;0.73;;;;;;;11.55;100.00;99708.38;4840923;29;20361;-92
2023/05/02 01:39:39;;;;;;;0.40;0.40;;;;;;;11.66;100.00;99728.19;4840915;29;20048;-91
2023/05/02 01:42:06;;;;;;;0.00;0.00;;;;;;;11.77;100.00;99725.06;4858648;29;20035;-91
2023/05/02 01:44:35;;;;;;;0.55;0.35;;;;;;;11.68;100.00;99711.88;4844290;29;20079;-91
2023/05/02 01:47:04;;;;;;;0.70;0.70;;;;;;;11.65;100.00;99692.53;4875127;29;20123;-91
2023/05/02 01:49:32;;;;;;;1.60;1.17;;;;;;;11.77;100.00;99708.38;4844075;29;20051;-92
2023/05/02 01:52:03;;;;;;;0.52;0.52;;;;;;;11.96;100.00;99734.31;4838463;29;20036;-92
2023/05/02 01:54:37;;;;;;;0.20;0.20;;;;;;;11.94;100.00;99718.06;4862595;29;20040;-92
2023/05/02 01:57:05;;;;;;;0.57;0.32;;;;;;;11.99;100.00;99733.38;4879430;29;20052;-91
2023/05/02 01:59:32;;;;;;;1.60;1.17;;;;;;;12.03;100.00;99722.91;4848570;29;20064;-92
2023/05/02 02:02:00;;;;;;;1.15;0.43;;;;;;;12.03;100.00;99723.69;4855030;29;20051;-92
2023/05/02 02:04:27;;;;;;;0.00;0.00;;;;;;;12.00;100.00;99727.38;4836796;29;20541;-91
2023/05/02 02:07:06;;;;;;;0.32;0.32;;;;;;;12.00;100.00;99718.28;4835841;29;20057;-91
2023/05/02 02:09:32;;;;;;;1.65;1.27;;;;;;;11.85;100.00;99701.31;4855336;29;20045;-92
2023/05/02 02:12:11;;;;;;;0.35;0.32;;;;;;;11.89;100.00;99715.88;4856738;29;20060;-92
2023/05/02 02:14:38;;;;;;;0.10;0.08;;;;;;;11.70;100.00;99703.84;4857695;29;20060;-92
2023/05/02 02:17:15;;;;;;;2.03;1.13;;;;;;;11.77;100.00;99729.84;4836923;29;20049;-91
2023/05/02 02:19:41;;;;;;;0.40;0.40;;;;;;;11.71;100.00;99721.28;4869423;29;20045;-91
2023/05/02 02:22:08;;;;;;;0.10;0.10;;;;;;;11.74;100.00;99734.31;4842642;29;20057;-91
2023/05/02 02:24:38;;;;;;;0.38;0.38;;;;;;;11.63;100.00;99714.44;4856215;29;20057;-93
2023/05/02 02:27:03;;;;;;;0.65;0.55;;;;;;;11.70;100.00;99723.28;4840254;29;20485;-91
2023/05/02 02:29:29;;;;;;;1.55;1.20;;;;;;;11.59;100.00;99705.47;4827121;29;20055;-93
2023/05/02 02:31:54;;;;;;;0.30;0.25;;;;;;;11.59;100.00;99713.78;4840680;29;20037;-92
2023/05/02 02:34:20;;;;;;;0.10;0.10;;;;;;;11.56;100.00;99728.59;4860016;29;20494;-90
2023/05/02 02:37:00;;;;;;;2.75;0.63;;;;;;;11.52;100.00;99723.16;4854965;29;20454;-92
2023/05/02 02:39:43;;;;;;;0.47;0.47;;;;;;;11.30;100.00;99711.25;4844553;29;20053;-90
2023/05/02 02:42:27;;;;;;;1.10;1.00;;;;;;;11.35;100.00;99721.00;4835507;29;20055;-91
2023/05/02 02:45:23;;;;;;;0.65;0.65;;;;;;;11.34;100.00;99722.22;4822921;29;20059;-93
2023/05/02 02:48:10;;;;;;;0.10;0.10;;;;;;;11.22;100.00;99719.03;4867350;29;20100;-92
2023/05/02 02:50:53;;;;;;;0.38;0.38;;;;;;;10.99;100.00;99702.00;4854152;29;20052;-91
2023/05/02 02:53:25;;;;;;;0.60;0.57;;;;;;;11.05;100.00;99720.41;4857399;29;20077;-91
2023/05/02 02:56:00;;;;;;;0.10;0.10;;;;;;;11.00;100.00;99715.41;4850865;29;20063;-91
2023/05/02 02:58:57;;;;;;;0.95;0.60;;;;;;;11.06;100.00;99723.97;4861708;29;20376;-91
2023/05/02 03:01:24;;;;;;;0.43;0.43;;;;;;;10.88;100.00;99713.44;4839018;29;20060;-92
2023/05/02 03:03:50;;;;;;;0.10;0.10;;;;;;;10.86;100.00;99715.91;4853573;29;20045;-91
2023/05/02 03:06:18;;;;;;;1.02;0.93;;;;;;;10.94;100.00;99731.09;4842114;29;20405;-91
2023/05/02 03:08:44;;;;;;;0.85;0.85;;;;;;;10.84;100.00;99723.88;4853201;29;20053;-90
2023/05/02 03:11:14;;;;;;;0.75;0.38;;;;;;;10.86;100.00;99710.34;4843371;29;20045;-90
2023/05/02 03:13:41;;;;;;;0.28;0.25;;;;;;;11.03;100.00;99730.41;4852745;29;20049;-91
2023/05/02 03:16:41;;;;;;;0.10;0.10;;;;;;;10.91;100.00;99718.13;4838800;29;20498;-92
2023/05/02 03:19:11;;;;;;;0.30;0.20;;;;;;;10.99;100.00;99736.09;4869640;29;20120;-93
2023/05/02 03:21:37;;;;;;;0.25;0.25;;;;;;;10.89;100.00;99731.66;4840425;29;20179;-91
2023/05/02 03:24:12;;;;;;;0.22;0.20;;;;;;;10.83;100.00;99739.00;4852679;29;20918;-92
2023/05/02 03:26:37;;;;;;;1.58;1.30;;;;;;;10.71;100.00;99731.47;4856832;29;20049;-91
2023/05/02 03:29:07;;;;;;;0.68;0.68;;;;;;;10.69;100.00;99733.91;4839822;29;20468;-92
2023/05/02 03:31:37;;;;;;;0.22;0.20;;;;;;;10.77;100.00;99743.53;4859712;29;20658;-92
2023/05/02 03:34:03;;;;;;;0.55;0.55;;;;;;;10.79;100.00;99760.53;4838727;29;20033;-92
2023/05/02 03:36:28;;;;;;;0.40;0.40;;;;;;;10.67;100.00;99747.44;4860010;29;20045;-92
2023/05/02 03:38:54;;;;;;;1.20;0.95;;;;;;;10.62;100.00;99750.78;4838937;29;20501;-92
2023/05/02 03:41:20;;;;;;;0.70;0.47;;;;;;;10.65;100.00;99744.34;4852242;29;20481;-91
2023/05/02 03:43:52;;;;;;;5.47;1.88;;;;;;;10.55;100.00;99742.69;4835119;29;20532;-93
2023/05/02 03:46:21;;;;;;;0.93;0.85;;;;;;;10.53;100.00;99748.66;4859131;29;20049;-90
2023/05/02 03:48:47;;;;;;;0.03;0.03;;;;;;;10.40;100.00;99736.00;4842892;29;20033;-91
2023/05/02 03:51:12;;;;;;;0.45;0.45;;;;;;;10.46;100.00;99742.56;4843268;29;20394;-91
2023/05/02 03:53:42;;;;;;;0.15;0.15;;;;;;;10.41;100.00;99743.09;4844544;29;20084;-91
2023/05/02 03:56:11;;;;;;;0.30;0.30;;;;;;;10.37;100.00;99725.81;4858528;29;20048;-92
2023/05/02 03:58:47;;;;;;;0.25;0.25;;;;;;;10.44;100.00;99750.53;4856709;29;20517;-91
2023/05/02 04:01:16;;;;;;;0.50;0.50;;;;;;;10.34;100.00;99740.56;4836518;29;20120;-93
2023/05/02 04:03:45;;;;;;;0.45;0.45;;;;;;;10.26;100.00;99731.69;4856083;29;20068;-92
2023/05/02 04:06:12;;;;;;;0.80;0.73;;;;;;;10.28;100.00;99743.88;4858245;29;20053;-92
2023/05/02 04:08:41;;;;;;;0.95;0.65;;;;;;;10.24;100.00;99729.34;4854592;29;20045;-92
2023/05/02 04:11:06;;;;;;;0.75;0.75;;;;;;;10.36;100.00;99757.50;4854962;29;20052;-92
2023/05/02 04:13:33;;;;;;;2.20;0.80;;;;;;;10.29;100.00;99733.56;4850998;29;20524;-93
2023/05/02 04:16:00;;;;;;;1.08;1.00;;;;;;;10.38;100.00;99757.88;4837647;29;20052;-93
2023/05/02 04:18:29;;;;;;;2.60;0.88;;;;;;;10.42;100.00;99770.41;4859221;29;20033;-93
2023/05/02 04:20:56;;;;;;;0.43;0.40;;;;;;;10.32;100.00;99740.22;4841430;29;20548;-92
2023/05/02 04:23:23;;;;;;;0.08;0.08;;;;;;;10.27;100.00;99745.09;4838189;29;20048;-92
2023/05/02 04:25:55;;;;;;;0.50;0.50;;;;;;;10.32;100.00;99742.97;4856238;29;20049;-92
2023/05/02 04:28:24;;;;;;;0.30;0.30;;;;;;;10.47;100.00;99750.44;4833941;29;20494;-91
2023/05/02 04:30:51;;;;;;;0.00;0.00;;;;;;;10.61;100.00;99747.22;4862915;29;21071;-92
2023/05/02 04:33:20;;;;;;;0.43;0.43;;;;;;;10.74;100.00;99738.91;4841516;29;20045;-92
2023/05/02 04:35:45;;;;;;;0.43;0.43;;;;;;;11.00;100.00;99753.53;4854471;29;20108;-91
2023/05/02 04:38:13;;;;;;;0.20;0.20;;;;;;;10.99;100.00;99752.75;4857329;29;20187;-92
2023/05/02 04:40:40;;;;;;;0.30;0.30;;;;;;;11.13;100.00;99746.72;4854794;29;20172;-91
2023/05/02 04:43:07;;;;;;;0.98;0.98;;;;;;;11.33;100.00;99759.53;4855251;29;20065;-92
2023/05/02 04:45:38;;;;;;;0.70;0.68;;;;;;;11.39;100.00;99752.19;4839366;29;20057;-92
2023/05/02 04:48:09;;;;;;;1.05;1.02;;;;;;;11.50;100.00;99770.03;4856205;29;20131;-92
2023/05/02 04:50:36;;;;;;;4.03;1.67;;;;;;;11.54;100.00;99781.81;4841563;29;20080;-93
2023/05/02 04:53:05;;;;;;;0.28;0.28;;;;;;;11.59;100.00;99763.78;4857950;29;20076;-95
2023/05/02 04:55:32;;;;;;;0.85;0.85;;;;;;;11.62;100.00;99760.88;4853277;29;20139;-93
2023/05/02 04:57:57;;;;;;;0.45;0.20;;;;;;;11.87;100.00;99771.16;4868844;29;20755;-91
2023/05/02 05:00:24;;;;;;;0.10;0.10;;;;;;;11.98;100.00;99765.97;4844178;29;20092;-91
2023/05/02 05:02:50;;;;;;;0.70;0.70;;;;;;;12.36;100.00;99793.56;4839970;29;20053;-91
2023/05/02 05:05:16;;;;;;;1.27;0.52;;;;;;;12.56;100.00;99788.41;4856270;29;20049;-91
2023/05/02 05:07:42;;;;;;;0.28;0.28;;;;;;;12.96;100.00;99809.91;4853836;29;20491;-92
2023/05/02 05:10:12;;;;;;;0.68;0.68;;;;;;;13.17;100.00;99805.53;4852341;29;20037;-91
2023/05/02 05:12:43;;;;;;;;;;;;;;;13.31;100.00;99786.19;4838428;29;20041;-90
2023/05/02 05:15:10;;;;;;;0.57;0.57;;;;;;;13.44;100.00;99784.06;4853577;29;19924;-91
2023/05/02 05:17:37;;;;;;;0.20;0.20;;;;;;;13.35;100.00;99783.25;4856249;29;20141;-92
2023/05/02 05:20:03;;;;;;;0.77;0.30;;;;;;;13.54;100.00;99791.22;4839273;29;20497;-90
2023/05/02 05:22:29;;;;;;;2.30;0.60;;;;;;;13.65;100.00;99799.09;4855825;29;20049;-92
2023/05/02 05:24:55;;;;;;;0.28;0.28;;;;;;;13.69;100.00;99796.94;4858333;29;20217;-90
2023/05/02 05:27:25;;;;;;;0.90;0.85;;;;;;;13.82;100.00;99802.34;4847013;29;20064;-92
2023/05/02 05:29:51;;;;;;;0.10;0.10;;;;;;;13.86;100.00;99792.59;4841622;29;20041;-93
2023/05/02 05:32:18;;;;;;;0.17;0.17;;;;;;;13.99;100.00;99800.81;4844193;29;20052;-93
2023/05/02 05:34:44;;;;;;;0.43;0.15;;;;;;;14.07;100.00;99801.25;4854542;29;20037;-92
2023/05/02 05:37:09;;;;;;;0.15;0.15;;;;;;;14.11;100.00;99785.16;4836856;29;20190;-92
2023/05/02 05:39:35;;;;;;;0.70;0.70;;;;;;;14.24;100.00;99800.44;4849506;29;20052;-91
2023/05/02 05:42:02;;;;;;;0.85;0.65;;;;;;;14.24;100.00;99794.88;4837080;29;20033;-90
2023/05/02 05:44:28;;;;;;;0.65;0.45;;;;;;;14.36;100.00;99798.75;4850919;29;20506;-91
2023/05/02 05:46:55;;;;;;;0.30;0.30;;;;;;;14.28;100.00;99794.69;4830962;29;20528;-91
2023/05/02 05:49:23;;;;;;;0.60;0.60;;;;;;;14.42;100.00;99816.41;4865809;29;20045;-91
2023/05/02 05:51:52;;;;;;;1.13;0.77;;;;;;;14.50;100.00;99828.03;4849250;29;20394;-93
2023/05/02 05:54:18;;;;;;;0.93;0.65;;;;;;;14.55;100.00;99822.59;4831997;29;20112;-92
2023/05/02 05:56:44;;;;;;;0.35;0.35;;;;;;;14.73;100.00;99839.28;4852174;29;20487;-92
2023/05/02 05:59:14;;;;;;;0.43;0.30;;;;;;;14.77;100.00;99823.13;4836765;29;20061;-91
2023/05/02 06:01:40;;;;;;;0.28;0.28;;;;;;;14.95;100.00;99825.09;4857382;29;20049;-92
2023/05/02 06:04:07;;;;;;;0.10;0.10;;;;;;;14.96;100.00;99814.69;4846662;29;20045;-94
2023/05/02 06:06:35;;;;;;;0.20;0.20;;;;;;;15.00;100.00;99810.50;4847027;29;20512;-94
2023/05/02 06:09:03;;;;;;;0.10;0.10;;;;;;;15.06;100.00;99830.94;4847974;29;20121;-95
2023/05/02 06:11:29;;;;;;;1.55;1.33;;;;;;;14.96;100.00;99823.06;4857096;29;20037;-94
2023/05/02 06:13:55;;;;;;;0.65;0.65;;;;;;;14.89;100.00;99805.41;4856887;29;20055;-94
2023/05/02 06:16:21;;;;;;;3.13;1.20;;;;;;;15.04;100.00;99821.50;4868806;29;20094;-95
2023/05/02 06:18:49;;;;;;;0.47;0.47;;;;;;;15.18;100.00;99837.53;4851715;29;20045;-94
2023/05/02 06:21:15;;;;;;;0.22;0.22;;;;;;;15.22;100.00;99826.97;4864793;29;20045;-93
2023/05/02 06:23:41;;;;;;;2.17;0.68;;;;;;;15.42;100.00;99841.13;4852333;29;20127;-93
2023/05/02 06:26:06;;;;;;;0.40;0.40;;;;;;;15.48;100.00;99818.91;4861313;29;20048;-93
2023/05/02 06:28:32;;;;;;;0.45;0.45;;;;;;;15.66;100.00;99833.56;4849420;29;20041;-95
2023/05/02 06:31:02;;;;;;;1.02;0.93;;;;;;;15.89;100.00;99834.81;4849745;29;20041;-94
2023/05/02 06:33:28;;;;;;;1.27;0.75;;;;;;;16.14;100.00;99851.06;4851468;29;20041;-95
2023/05/02 06:35:54;;;;;;;0.65;0.65;;;;;;;16.10;100.00;99825.28;4868311;29;20131;-93
2023/05/02 06:38:20;;;;;;;4.65;2.00;;;;;;;16.21;100.00;99819.13;4861002;29;20071;-93
2023/05/02 06:40:46;;;;;;;0.50;0.50;;;;;;;16.38;98.81;99841.84;4867678;29;20459;-95
2023/05/02 06:43:12;;;;;;;1.80;1.60;;;;;;;16.57;96.01;99851.63;4862948;29;20057;-94
2023/05/02 06:45:39;;;;;;;1.70;1.13;;;;;;;16.56;95.20;99819.25;4858678;29;20052;-94
2023/05/02 06:48:05;;;;;;;1.10;1.00;;;;;;;16.90;93.51;99854.22;4873422;29;20061;-95
2023/05/02 06:50:31;;;;;;;1.20;1.02;;;;;;;17.01;93.76;99863.56;4868197;29;20057;-94
2023/05/02 06:52:57;;;;;;;0.70;0.63;;;;;;;17.16;92.58;99869.16;4868088;29;20148;-94
2023/05/02 06:55:23;;;;;;;0.57;0.50;;;;;;;17.18;90.35;99841.41;4853094;29;20061;-94
2023/05/02 06:57:49;;;;;;;0.32;0.32;;;;;;;17.25;86.60;99852.22;4848063;29;20046;-95
2023/05/02 07:00:16;;;;;;;0.10;0.10;;;;;;;17.10;87.63;99838.25;4866941;29;20041;-94
2023/05/02 07:02:42;;;;;;;0.10;0.10;;;;;;;17.06;87.26;99831.31;4868973;29;20049;-94
2023/05/02 07:05:10;;;;;;;0.60;0.60;;;;;;;16.89;85.45;99833.06;4866557;29;20063;-94
2023/05/02 07:07:36;;;;;;;0.08;0.08;;;;;;;16.86;87.38;99828.44;4841602;29;20041;-95
2023/05/02 07:10:03;;;;;;;1.13;1.02;;;;;;;17.00;88.59;99842.41;4851635;29;20068;-94
2023/05/02 07:12:32;;;;;;;0.77;0.77;;;;;;;17.14;87.46;99843.66;4831765;29;20046;-94
2023/05/02 07:14:58;;;;;;;1.00;0.70;;;;;;;17.04;83.60;99831.00;4841188;29;20045;-95
2023/05/02 07:17:24;;;;;;;0.85;0.60;;;;;;;17.03;85.47;99826.66;4856264;29;20459;-94
2023/05/02 07:19:53;;;;;;;0.40;0.40;;;;;;;17.43;84.99;99880.00;4874095;29;20068;-95
2023/05/02 07:22:20;;;;;;;0.80;0.73;;;;;;;17.39;83.57;99868.22;4876276;29;20053;-93
2023/05/02 07:24:45;;;;;;;0.63;0.63;;;;;;;17.62;81.74;99886.16;4845181;29;20069;-92
2023/05/02 07:27:20;;;;;;;0.47;0.47;;;;;;;17.46;79.42;99851.00;4894081;29;20052;-96
2023/05/02 07:29:48;;;;;;;2.60;0.68;;;;;;;17.53;79.66;99859.00;4879016;29;20061;-96
2023/05/02 07:32:21;;;;;;;1.23;1.05;;;;;;;17.60;78.60;99855.81;4885539;29;20093;-96
2023/05/02 07:34:53;;;;;;;1.27;0.75;;;;;;;17.60;76.80;99847.38;4894735;29;20494;-95
2023/05/02 07:37:22;;;;;;;0.43;0.13;;;;;;;17.84;78.14;99874.47;4883342;29;20053;-95
2023/05/02 07:39:49;;;;;;;0.43;0.40;;;;;;;17.69;77.88;99841.66;4865826;29;20057;-96
2023/05/02 07:42:27;;;;;;;0.57;0.57;;;;;;;18.14;76.36;99892.72;4878795;29;20041;-95
2023/05/02 07:44:53;;;;;;;0.38;0.25;;;;;;;18.17;74.78;99902.94;4858988;29;20109;-95
2023/05/02 07:47:18;;;;;;;1.40;0.65;;;;;;;17.98;75.76;99856.78;4847931;29;20049;-95
2023/05/02 07:49:49;;;;;;;1.15;0.85;;;;;;;18.30;75.88;99899.78;4863026;29;20028;-95
2023/05/02 07:52:15;;;;;;;0.28;0.25;;;;;;;18.15;72.81;99877.41;4827341;29;20095;-95
2023/05/02 07:54:41;;;;;;;0.77;0.52;;;;;;;18.32;75.35;99886.78;4848825;29;20457;-94
2023/05/02 07:57:07;;;;;;;0.10;0.10;;;;;;;18.34;72.12;99887.06;4828239;29;20132;-95
2023/05/02 07:59:33;;;;;;;1.50;1.00;;;;;;;18.50;70.46;99897.72;4858074;29;20049;-95
2023/05/02 08:01:58;;;;;;;0.50;0.50;;;;;;;18.33;68.05;99888.31;4874122;29;20807;-95
2023/05/02 08:04:25;;;;;;;1.23;0.63;;;;;;;18.31;71.19;99878.88;4846609;29;20061;-95
2023/05/02 08:06:51;;;;;;;0.40;0.38;;;;;;;18.27;72.73;99856.63;4846529;29;20049;-95
2023/05/02 08:09:16;;;;;;;0.57;0.30;;;;;;;18.47;72.73;99858.63;4878420;29;20116;-95
2023/05/02 08:11:42;;;;;;;1.23;0.80;;;;;;;18.57;68.26;99880.44;4869742;29;20049;-91
2023/05/02 08:14:08;;;;;;;0.63;0.63;;;;;;;18.62;68.73;99890.97;4886820;29;20033;-95
2023/05/02 08:16:33;;;;;;;0.38;0.38;;;;;;;18.66;69.56;99901.22;4852347;29;20461;-92
2023/05/02 08:18:59;;;;;;;0.82;0.82;;;;;;;18.66;68.84;99890.75;4870439;29;20061;-92
2023/05/02 08:21:26;;;;;;;0.68;0.65;;;;;;;18.77;71.18;99909.75;4874659;29;20053;-93
2023/05/02 08:23:57;;;;;;;0.73;0.47;;;;;;;18.80;69.05;99889.09;4863909;29;20096;-94
2023/05/02 08:26:23;;;;;;;0.88;0.57;;;;;;;18.71;69.60;99901.28;4851845;29;20053;-91
2023/05/02 08:28:50;;;;;;;0.20;0.20;;;;;;;18.92;71.82;99910.41;4892283;29;20096;-90
2023/05/02 08:31:16;;;;;;;0.70;0.45;;;;;;;18.98;68.83;99906.38;4862025;29;20513;-92
2023/05/02 08:33:41;;;;;;;4.43;0.47;;;;;;;19.07;68.91;99899.81;4845819;29;20054;-93
2023/05/02 08:36:14;;;;;;;0.50;0.47;;;;;;;19.30;69.83;99904.31;4837363;29;20045;-91
2023/05/02 08:38:40;;;;;;;1.25;0.80;;;;;;;19.23;64.77;99907.59;4879696;29;20049;-89
2023/05/02 08:41:10;;;;;;;0.70;0.28;;;;;;;19.22;66.37;99897.63;4860655;29;20531;-90
2023/05/02 08:43:37;;;;;;;1.30;0.85;;;;;;;19.20;64.58;99897.34;4860339;29;20052;-89
2023/05/02 08:46:06;;;;;;;3.13;1.42;;;;;;;19.23;66.78;99909.63;4876401;29;20048;-89
2023/05/02 08:48:34;;;;;;;1.02;0.88;;;;;;;19.37;66.51;99911.53;4862047;29;20139;-90
2023/05/02 08:51:01;;;;;;;0.90;0.85;;;;;;;19.37;66.59;99903.09;4878825;29;20044;-90
2023/05/02 08:53:27;;;;;;;0.82;0.30;;;;;;;19.35;66.51;99894.38;4877617;29;20107;-89
2023/05/02 08:55:53;;;;;;;0.70;0.70;;;;;;;19.37;66.28;99901.03;4849095;29;20053;-90
2023/05/02 08:58:18;;;;;;;0.63;0.60;;;;;;;19.47;69.04;99898.84;4861175;29;20545;-90
2023/05/02 09:00:45;;;;;;;0.50;0.35;;;;;;;19.60;68.66;99898.41;4862462;29;20085;-90
2023/05/02 09:03:23;;;;;;;1.38;0.43;;;;;;;19.62;66.73;99907.09;4845130;29;20136;-91
2023/05/02 09:05:54;;;;;;;0.63;0.43;;;;;;;19.53;64.95;99903.22;4858874;29;20056;-89
2023/05/02 09:08:23;;;;;;;0.32;0.32;;;;;;;19.33;65.34;99900.50;4860125;29;20057;-90
2023/05/02 09:10:50;;;;;;;0.40;0.40;;;;;;;19.27;65.68;99896.13;4856780;29;20451;-90
2023/05/02 09:13:34;;;;;;;0.38;0.17;;;;;;;19.23;66.77;99907.59;4859824;29;20530;-91
2023/05/02 09:16:05;;;;;;;1.30;0.82;;;;;;;19.18;63.46;99905.50;4864256;29;20117;-91
2023/05/02 09:18:45;;;;;;;0.30;0.30;;;;;;;19.11;62.38;99903.16;4844477;29;20166;-90
2023/05/02 09:21:20;;;;;;;0.38;0.38;;;;;;;18.89;62.10;99902.94;4829001;29;20049;-90
2023/05/02 09:23:47;;;;;;;0.68;0.63;;;;;;;18.78;63.26;99905.66;4865979;29;20045;-90
2023/05/02 09:26:18;;;;;;;0.65;0.63;;;;;;;18.73;63.74;99917.63;4847522;29;20029;-90
2023/05/02 09:28:53;;;;;;;1.02;0.63;;;;;;;18.95;65.12;99923.47;4869677;29;20064;-90
2023/05/02 09:31:21;;;;;;;3.42;1.45;;;;;;;19.14;62.22;99916.22;4871068;29;20143;-90
2023/05/02 09:33:47;;;;;;;2.17;0.80;;;;;;;19.27;60.35;99919.38;4877666;29;20800;-89
2023/05/02 09:36:17;;;;;;;0.35;0.35;;;;;;;19.07;56.95;99922.28;4856456;29;20353;-90
2023/05/02 09:38:44;;;;;;;0.65;0.65;;;;;;;19.02;58.62;99920.97;4844613;29;20050;-90
2023/05/02 09:41:10;;;;;;;0.32;0.30;;;;;;;19.15;58.18;99929.00;4855530;29;20061;-90
2023/05/02 09:43:36;;;;;;;0.20;0.20;;;;;;;19.27;57.69;99927.81;4849748;29;20054;-91
2023/05/02 09:46:05;;;;;;;0.70;0.57;;;;;;;19.37;56.78;99926.34;4844244;29;20506;-89
2023/05/02 09:48:32;;;;;;;1.90;1.23;;;;;;;19.55;57.00;99922.44;4859246;29;20562;-89
2023/05/02 09:50:58;;;;;;;1.85;0.75;;;;;;;19.61;56.72;99903.56;4861725;29;20136;-90
2023/05/02 09:53:26;;;;;;;0.10;0.10;;;;;;;19.87;55.52;99917.50;4858916;29;20060;-90
2023/05/02 09:56:04;;;;;;;0.60;0.60;;;;;;;19.97;55.58;99918.84;4832643;29;20409;-90
2023/05/02 09:58:30;;;;;;;10.77;1.38;;;;;;;20.06;54.85;99910.16;4872389;29;20502;-90
2023/05/02 10:00:56;;;;;;;0.28;0.28;;;;;;;20.26;55.15;99909.25;4846785;29;20041;-90
2023/05/02 10:03:23;;;;;;;0.40;0.40;;;;;;;20.45;52.86;99913.16;4848672;29;20055;-90
2023/05/02 10:05:49;;;;;;;1.83;1.05;;;;;;;20.54;51.96;99915.75;4841919;29;20064;-89
2023/05/02 10:08:17;;;;;;;0.57;0.57;;;;;;;20.69;54.14;99916.28;4855551;29;20072;-90
2023/05/02 10:10:47;;;;;;;0.45;0.45;;;;;;;20.79;53.70;99903.47;4856977;29;20041;-90
2023/05/02 10:13:13;;;;;;;0.47;0.40;;;;;;;20.98;50.44;99903.78;4865819;29;20068;-90
2023/05/02 10:15:43;;;;;;;0.98;0.93;;;;;;;20.90;52.82;99905.56;4854342;29;20409;-89
2023/05/02 10:18:14;;;;;;;0.28;0.17;;;;;;;21.02;53.11;99901.47;4869333;29;20041;-90
2023/05/02 10:20:55;;;;;;;1.10;0.52;;;;;;;20.65;52.21;99909.38;4860250;29;20052;-89
2023/05/02 10:23:21;;;;;;;0.30;0.30;;;;;;;20.56;53.47;99912.41;4840690;29;20109;-89
2023/05/02 10:25:46;;;;;;;14.93;0.68;;;;;;;20.55;55.51;99910.88;4831255;29;20048;-90
2023/05/02 10:28:13;;;;;;;0.68;0.63;;;;;;;20.32;55.05;99910.81;4858423;29;20045;-90
2023/05/02 10:30:39;;;;;;;1.00;0.75;;;;;;;20.22;56.61;99909.44;4843457;29;20208;-90
2023/05/02 10:33:05;;;;;;;1.55;1.45;;;;;;;20.14;56.63;99905.59;4843729;29;20037;-89
2023/05/02 10:35:31;;;;;;;1.08;0.90;;;;;;;20.32;59.12;99896.72;4863219;29;20056;-89
2023/05/02 10:37:58;;;;;;;0.45;0.45;;;;;;;20.61;59.26;99900.38;4837164;29;20048;-90
2023/05/02 10:40:23;;;;;;;0.50;0.50;;;;;;;20.79;58.29;99899.88;4875331;29;20057;-90
2023/05/02 10:42:50;;;;;;;0.88;0.75;;;;;;;20.91;56.12;99907.84;4858278;29;20077;-91
2023/05/02 10:45:36;;;;;;;0.95;0.73;;;;;;;21.08;54.41;99907.84;4846134;29;20059;-90
2023/05/02 10:48:13;;;;;;;1.65;1.40;;;;;;;21.26;54.84;99910.22;4853175;29;20049;-90
2023/05/02 10:50:47;;;;;;;0.52;0.35;;;;;;;21.30;54.78;99907.13;4856268;29;20045;-90
2023/05/02 10:53:33;;;;;;;0.20;0.20;;;;;;;21.68;55.55;99917.56;4844531;29;20096;-90
2023/05/02 10:56:20;;;;;;;0.20;0.20;;;;;;;21.98;53.59;99923.44;4840512;29;20106;-90
2023/05/02 10:58:47;;;;;;;0.40;0.40;;;;;;;22.17;52.85;99918.72;4856495;29;20124;-89
2023/05/02 11:01:28;;;;;;;1.02;0.70;;;;;;;22.31;50.69;99920.47;4858115;29;20402;-90
2023/05/02 11:03:58;;;;;;;21.13;1.75;;;;;;;22.53;51.34;99913.16;4855507;29;20053;-90
2023/05/02 11:06:26;;;;;;;0.57;0.57;;;;;;;22.55;51.53;99916.25;4844563;29;20052;-90
2023/05/02 11:08:52;;;;;;;0.32;0.32;;;;;;;22.52;49.38;99917.28;4862212;29;20581;-90
2023/05/02 11:11:36;;;;;;;1.25;1.08;;;;;;;22.46;48.72;99913.72;4856698;29;20045;-91
2023/05/02 11:14:02;;;;;;;0.52;0.47;;;;;;;22.33;50.28;99915.06;4865885;29;20103;-91
2023/05/02 11:16:56;;;;;;;1.70;1.15;;;;;;;22.29;51.57;99910.97;4870169;29;20505;-90
2023/05/02 11:19:22;;;;;;;1.55;0.60;;;;;;;22.21;49.57;99910.75;4843640;29;20037;-90
2023/05/02 11:21:48;;;;;;;0.75;0.57;;;;;;;22.32;50.44;99916.34;4842020;29;20045;-91
2023/05/02 11:24:36;;;;;;;0.63;0.63;;;;;;;22.33;49.25;99923.53;4848386;29;20529;-90
2023/05/02 11:27:30;;;;;;;0.63;0.63;;;;;;;22.34;49.63;99927.13;4862324;29;20090;-91
2023/05/02 11:29:59;;;;;;;;;;;;;;;22.40;52.19;99921.47;4870346;29;20452;-91
2023/05/02 11:32:48;;;;;;;1.35;1.25;;;;;;;22.59;50.46;99928.03;4857284;29;20541;-90
2023/05/02 11:35:19;;;;;;;0.30;0.30;;;;;;;22.61;50.41;99919.78;4872493;29;20116;-90
2023/05/02 11:37:54;;;;;;;0.57;0.57;;;;;;;22.46;49.26;99922.19;4826973;29;20041;-91
2023/05/02 11:40:20;;;;;;;0.20;0.20;;;;;;;22.38;50.59;99924.03;4838932;29;20113;-90
2023/05/02 11:42:46;;;;;;;0.57;0.52;;;;;;;22.17;50.64;99921.56;4863434;29;20037;-89